sensor_id;sensor_type;location;lat;lon;timestamp;temperature;humidity
20364;DHT22;10340;53.664;9.908;2022-08-21T00:01:30;13.70;99.90
20364;DHT22;10340;53.664;9.908;2022-08-21T00:03:57;13.60;99.90
20364;DHT22;10340;53.664;9.908;2022-08-21T00:06:25;13.60;99.90
20364;DHT22;10340;53.664;9.908;2022-08-21T00:08:52;13.60;99.90
20364;DHT22;10340;53.664;9.908;2022-08-21T00:11:21;13.60;99.90
20364;DHT22;10340;53.664;9.908;2022-08-21T00:13:48;13.50;99.90
20364;DHT22;10340;53.664;9.908;2022-08-21T00:16:15;13.40;99.90
20364;DHT22;10340;53.664;9.908;2022-08-21T00:18:42;13.30;99.90
20364;DHT22;10340;53.664;9.908;2022-08-21T00:21:11;13.40;99.90
20364;DHT22;10340;53.664;9.908;2022-08-21T00:23:39;13.40;99.90
20364;DHT22;10340;53.664;9.908;2022-08-21T00:26:07;13.40;99.90
20364;DHT22;10340;53.664;9.908;2022-08-21T00:28:34;13.40;99.90
20364;DHT22;10340;53.664;9.908;2022-08-21T00:31:01;13.30;99.90
20364;DHT22;10340;53.664;9.908;2022-08-21T00:33:30;13.30;99.90
20364;DHT22;10340;53.664;9.908;2022-08-21T00:35:57;13.20;99.90
20364;DHT22;10340;53.664;9.908;2022-08-21T00:38:24;13.20;99.90
20364;DHT22;10340;53.664;9.908;2022-08-21T00:40:55;13.20;99.90
20364;DHT22;10340;53.664;9.908;2022-08-21T00:43:25;13.10;99.90
20364;DHT22;10340;53.664;9.908;2022-08-21T00:45:53;13.10;99.90
20364;DHT22;10340;53.664;9.908;2022-08-21T00:48:21;13.10;99.90
20364;DHT22;10340;53.664;9.908;2022-08-21T00:50:51;13.10;99.90
20364;DHT22;10340;53.664;9.908;2022-08-21T00:53:19;13.10;99.90
20364;DHT22;10340;53.664;9.908;2022-08-21T00:55:46;13.00;99.90
20364;DHT22;10340;53.664;9.908;2022-08-21T00:58:14;13.00;99.90
20364;DHT22;10340;53.664;9.908;2022-08-21T01:00:45;13.00;99.90
20364;DHT22;10340;53.664;9.908;2022-08-21T01:03:15;13.00;99.90
20364;DHT22;10340;53.664;9.908;2022-08-21T01:05:42;13.00;99.90
20364;DHT22;10340;53.664;9.908;2022-08-21T01:08:10;13.00;99.90
20364;DHT22;10340;53.664;9.908;2022-08-21T01:10:38;13.00;99.90
20364;DHT22;10340;53.664;9.908;2022-08-21T01:13:07;12.90;99.90
20364;DHT22;10340;53.664;9.908;2022-08-21T01:15:38;12.90;99.90
20364;DHT22;10340;53.664;9.908;2022-08-21T01:18:08;12.80;99.90
20364;DHT22;10340;53.664;9.908;2022-08-21T01:20:38;12.70;99.90
20364;DHT22;10340;53.664;9.908;2022-08-21T01:23:06;12.70;99.90
20364;DHT22;10340;53.664;9.908;2022-08-21T01:25:34;12.60;99.90
20364;DHT22;10340;53.664;9.908;2022-08-21T01:28:06;12.50;99.90
20364;DHT22;10340;53.664;9.908;2022-08-21T01:30:37;12.50;99.90
20364;DHT22;10340;53.664;9.908;2022-08-21T01:33:04;12.50;99.90
20364;DHT22;10340;53.664;9.908;2022-08-21T01:35:31;12.50;99.90
20364;DHT22;10340;53.664;9.908;2022-08-21T01:37:58;12.50;99.90
20364;DHT22;10340;53.664;9.908;2022-08-21T01:40:27;12.50;99.90
20364;DHT22;10340;53.664;9.908;2022-08-21T01:42:54;12.50;99.90
20364;DHT22;10340;53.664;9.908;2022-08-21T01:45:20;12.50;99.90
20364;DHT22;10340;53.664;9.908;2022-08-21T01:47:47;12.50;99.90
20364;DHT22;10340;53.664;9.908;2022-08-21T01:50:16;12.40;99.90
20364;DHT22;10340;53.664;9.908;2022-08-21T01:52:43;12.40;99.90
20364;DHT22;10340;53.664;9.908;2022-08-21T01:55:12;12.30;99.90
20364;DHT22;10340;53.664;9.908;2022-08-21T01:57:40;12.30;99.90
20364;DHT22;10340;53.664;9.908;2022-08-21T02:00:10;12.30;99.90
20364;DHT22;10340;53.664;9.908;2022-08-21T02:02:38;12.30;99.90
20364;DHT22;10340;53.664;9.908;2022-08-21T02:05:06;12.30;99.90
20364;DHT22;10340;53.664;9.908;2022-08-21T02:07:36;12.30;99.90
20364;DHT22;10340;53.664;9.908;2022-08-21T02:10:07;12.30;99.90
20364;DHT22;10340;53.664;9.908;2022-08-21T02:12:34;12.30;99.90
20364;DHT22;10340;53.664;9.908;2022-08-21T02:15:04;12.30;99.90
20364;DHT22;10340;53.664;9.908;2022-08-21T02:17:38;12.30;99.90
20364;DHT22;10340;53.664;9.908;2022-08-21T02:20:06;12.30;99.90
20364;DHT22;10340;53.664;9.908;2022-08-21T02:22:33;12.40;99.90
20364;DHT22;10340;53.664;9.908;2022-08-21T02:25:00;12.40;99.90
20364;DHT22;10340;53.664;9.908;2022-08-21T02:27:27;12.40;99.90
20364;DHT22;10340;53.664;9.908;2022-08-21T02:29:55;12.30;99.90
20364;DHT22;10340;53.664;9.908;2022-08-21T02:32:24;12.30;99.90
20364;DHT22;10340;53.664;9.908;2022-08-21T02:34:51;12.30;99.90
20364;DHT22;10340;53.664;9.908;2022-08-21T02:37:18;12.30;99.90
20364;DHT22;10340;53.664;9.908;2022-08-21T02:39:45;12.20;99.90
20364;DHT22;10340;53.664;9.908;2022-08-21T02:42:12;12.20;99.90
20364;DHT22;10340;53.664;9.908;2022-08-21T02:44:39;12.20;99.90
20364;DHT22;10340;53.664;9.908;2022-08-21T02:47:06;12.10;99.90
20364;DHT22;10340;53.664;9.908;2022-08-21T02:49:34;12.10;99.90
20364;DHT22;10340;53.664;9.908;2022-08-21T02:52:01;12.00;99.90
20364;DHT22;10340;53.664;9.908;2022-08-21T02:54:28;12.00;99.90
20364;DHT22;10340;53.664;9.908;2022-08-21T02:56:55;12.00;99.90
20364;DHT22;10340;53.664;9.908;2022-08-21T02:59:22;12.00;99.90
20364;DHT22;10340;53.664;9.908;2022-08-21T03:01:49;12.00;99.90
20364;DHT22;10340;53.664;9.908;2022-08-21T03:04:16;11.90;99.90
20364;DHT22;10340;53.664;9.908;2022-08-21T03:06:45;11.90;99.90
20364;DHT22;10340;53.664;9.908;2022-08-21T03:09:12;11.90;99.90
20364;DHT22;10340;53.664;9.908;2022-08-21T03:11:38;11.90;99.90
20364;DHT22;10340;53.664;9.908;2022-08-21T03:14:05;11.90;99.90
20364;DHT22;10340;53.664;9.908;2022-08-21T03:16:32;11.80;99.90
20364;DHT22;10340;53.664;9.908;2022-08-21T03:18:59;11.80;99.90
20364;DHT22;10340;53.664;9.908;2022-08-21T03:21:26;11.80;99.90
20364;DHT22;10340;53.664;9.908;2022-08-21T03:23:55;11.80;99.90
20364;DHT22;10340;53.664;9.908;2022-08-21T03:26:22;11.80;99.90
20364;DHT22;10340;53.664;9.908;2022-08-21T03:28:49;11.80;99.90
20364;DHT22;10340;53.664;9.908;2022-08-21T03:31:16;11.80;99.90
20364;DHT22;10340;53.664;9.908;2022-08-21T03:33:44;11.70;99.90
20364;DHT22;10340;53.664;9.908;2022-08-21T03:36:11;11.80;99.90
20364;DHT22;10340;53.664;9.908;2022-08-21T03:38:38;11.70;99.90
20364;DHT22;10340;53.664;9.908;2022-08-21T03:41:07;11.70;99.90
20364;DHT22;10340;53.664;9.908;2022-08-21T03:43:35;11.70;99.90
20364;DHT22;10340;53.664;9.908;2022-08-21T03:46:05;11.60;99.90
20364;DHT22;10340;53.664;9.908;2022-08-21T03:48:33;11.60;99.90
20364;DHT22;10340;53.664;9.908;2022-08-21T03:51:00;11.50;99.90
20364;DHT22;10340;53.664;9.908;2022-08-21T03:53:28;11.50;99.90
20364;DHT22;10340;53.664;9.908;2022-08-21T03:55:56;11.50;99.90
20364;DHT22;10340;53.664;9.908;2022-08-21T03:58:26;11.50;99.90
20364;DHT22;10340;53.664;9.908;2022-08-21T04:00:56;11.50;99.90
20364;DHT22;10340;53.664;9.908;2022-08-21T04:03:24;11.50;99.90
20364;DHT22;10340;53.664;9.908;2022-08-21T04:05:51;11.50;99.90
20364;DHT22;10340;53.664;9.908;2022-08-21T04:08:18;11.50;99.90
20364;DHT22;10340;53.664;9.908;2022-08-21T04:10:48;11.50;99.90
20364;DHT22;10340;53.664;9.908;2022-08-21T04:13:15;11.40;99.90
20364;DHT22;10340;53.664;9.908;2022-08-21T04:15:43;11.40;99.90
20364;DHT22;10340;53.664;9.908;2022-08-21T04:18:10;11.50;99.90
20364;DHT22;10340;53.664;9.908;2022-08-21T04:20:41;11.40;99.90
20364;DHT22;10340;53.664;9.908;2022-08-21T04:23:09;11.50;99.90
20364;DHT22;10340;53.664;9.908;2022-08-21T04:25:36;11.50;99.90
20364;DHT22;10340;53.664;9.908;2022-08-21T04:28:03;11.50;99.90
20364;DHT22;10340;53.664;9.908;2022-08-21T04:30:30;11.60;99.90
20364;DHT22;10340;53.664;9.908;2022-08-21T04:32:59;11.60;99.90
20364;DHT22;10340;53.664;9.908;2022-08-21T04:35:27;11.60;99.90
20364;DHT22;10340;53.664;9.908;2022-08-21T04:37:54;11.70;99.90
20364;DHT22;10340;53.664;9.908;2022-08-21T04:40:23;11.70;99.90
20364;DHT22;10340;53.664;9.908;2022-08-21T04:42:53;11.70;99.90
20364;DHT22;10340;53.664;9.908;2022-08-21T04:45:23;11.80;99.90
20364;DHT22;10340;53.664;9.908;2022-08-21T04:47:51;11.80;99.90
20364;DHT22;10340;53.664;9.908;2022-08-21T04:50:23;11.90;99.90
20364;DHT22;10340;53.664;9.908;2022-08-21T04:52:51;12.00;99.90
20364;DHT22;10340;53.664;9.908;2022-08-21T04:55:18;12.00;99.90
20364;DHT22;10340;53.664;9.908;2022-08-21T04:57:46;12.10;99.90
20364;DHT22;10340;53.664;9.908;2022-08-21T05:00:14;12.10;99.90
20364;DHT22;10340;53.664;9.908;2022-08-21T05:02:43;12.20;99.90
20364;DHT22;10340;53.664;9.908;2022-08-21T05:05:12;12.20;99.90
20364;DHT22;10340;53.664;9.908;2022-08-21T05:07:42;12.30;99.90
20364;DHT22;10340;53.664;9.908;2022-08-21T05:10:11;12.30;99.90
20364;DHT22;10340;53.664;9.908;2022-08-21T05:12:40;12.40;99.90
20364;DHT22;10340;53.664;9.908;2022-08-21T05:15:09;12.50;99.90
20364;DHT22;10340;53.664;9.908;2022-08-21T05:17:37;12.60;99.90
20364;DHT22;10340;53.664;9.908;2022-08-21T05:20:04;12.70;99.90
20364;DHT22;10340;53.664;9.908;2022-08-21T05:22:31;12.80;99.90
20364;DHT22;10340;53.664;9.908;2022-08-21T05:24:59;12.90;99.90
20364;DHT22;10340;53.664;9.908;2022-08-21T05:27:26;13.00;99.90
20364;DHT22;10340;53.664;9.908;2022-08-21T05:29:55;13.10;99.90
20364;DHT22;10340;53.664;9.908;2022-08-21T05:32:22;13.20;99.90
20364;DHT22;10340;53.664;9.908;2022-08-21T05:34:49;13.30;99.90
20364;DHT22;10340;53.664;9.908;2022-08-21T05:37:16;13.40;99.90
20364;DHT22;10340;53.664;9.908;2022-08-21T05:39:43;13.50;99.90
20364;DHT22;10340;53.664;9.908;2022-08-21T05:42:11;13.60;99.90
20364;DHT22;10340;53.664;9.908;2022-08-21T05:44:38;13.70;99.90
20364;DHT22;10340;53.664;9.908;2022-08-21T05:47:07;13.80;99.90
20364;DHT22;10340;53.664;9.908;2022-08-21T05:49:34;14.00;99.90
20364;DHT22;10340;53.664;9.908;2022-08-21T05:52:02;14.20;99.90
20364;DHT22;10340;53.664;9.908;2022-08-21T05:54:30;14.30;99.90
20364;DHT22;10340;53.664;9.908;2022-08-21T05:56:57;14.50;99.90
20364;DHT22;10340;53.664;9.908;2022-08-21T05:59:26;14.50;99.90
20364;DHT22;10340;53.664;9.908;2022-08-21T06:01:53;14.60;99.90
20364;DHT22;10340;53.664;9.908;2022-08-21T06:04:20;14.70;99.90
20364;DHT22;10340;53.664;9.908;2022-08-21T06:06:46;14.80;99.90
20364;DHT22;10340;53.664;9.908;2022-08-21T06:09:14;15.00;99.90
20364;DHT22;10340;53.664;9.908;2022-08-21T06:11:41;15.10;99.90
20364;DHT22;10340;53.664;9.908;2022-08-21T06:14:07;15.30;99.90
20364;DHT22;10340;53.664;9.908;2022-08-21T06:16:36;15.40;99.90
20364;DHT22;10340;53.664;9.908;2022-08-21T06:19:03;15.60;99.90
20364;DHT22;10340;53.664;9.908;2022-08-21T06:21:30;15.80;99.90
20364;DHT22;10340;53.664;9.908;2022-08-21T06:23:57;16.00;99.90
20364;DHT22;10340;53.664;9.908;2022-08-21T06:26:24;16.20;99.90
20364;DHT22;10340;53.664;9.908;2022-08-21T06:28:51;16.40;99.90
20364;DHT22;10340;53.664;9.908;2022-08-21T06:31:21;16.60;99.90
20364;DHT22;10340;53.664;9.908;2022-08-21T06:33:50;16.70;99.90
20364;DHT22;10340;53.664;9.908;2022-08-21T06:36:17;16.90;99.90
20364;DHT22;10340;53.664;9.908;2022-08-21T06:38:44;16.90;99.90
20364;DHT22;10340;53.664;9.908;2022-08-21T06:41:11;16.90;99.90
20364;DHT22;10340;53.664;9.908;2022-08-21T06:43:38;17.10;99.90
20364;DHT22;10340;53.664;9.908;2022-08-21T06:46:05;17.30;99.90
20364;DHT22;10340;53.664;9.908;2022-08-21T06:48:33;17.50;99.90
20364;DHT22;10340;53.664;9.908;2022-08-21T06:51:01;17.60;99.90
20364;DHT22;10340;53.664;9.908;2022-08-21T06:53:29;17.80;99.90
20364;DHT22;10340;53.664;9.908;2022-08-21T06:55:55;18.10;99.90
20364;DHT22;10340;53.664;9.908;2022-08-21T06:58:22;18.20;99.90
20364;DHT22;10340;53.664;9.908;2022-08-21T07:00:50;18.30;99.90
20364;DHT22;10340;53.664;9.908;2022-08-21T07:03:24;18.50;99.90
20364;DHT22;10340;53.664;9.908;2022-08-21T07:05:51;18.70;99.90
20364;DHT22;10340;53.664;9.908;2022-08-21T07:08:20;18.80;99.90
20364;DHT22;10340;53.664;9.908;2022-08-21T07:10:48;18.80;99.90
20364;DHT22;10340;53.664;9.908;2022-08-21T07:13:16;18.90;99.90
20364;DHT22;10340;53.664;9.908;2022-08-21T07:15:43;19.00;99.90
20364;DHT22;10340;53.664;9.908;2022-08-21T07:18:10;19.20;99.90
20364;DHT22;10340;53.664;9.908;2022-08-21T07:20:37;19.30;99.90
20364;DHT22;10340;53.664;9.908;2022-08-21T07:23:07;19.40;99.90
20364;DHT22;10340;53.664;9.908;2022-08-21T07:25:36;19.50;99.90
20364;DHT22;10340;53.664;9.908;2022-08-21T07:28:03;19.70;99.90
20364;DHT22;10340;53.664;9.908;2022-08-21T07:30:30;19.80;99.90
20364;DHT22;10340;53.664;9.908;2022-08-21T07:32:57;19.90;99.90
20364;DHT22;10340;53.664;9.908;2022-08-21T07:35:24;20.00;99.90
20364;DHT22;10340;53.664;9.908;2022-08-21T07:37:53;20.20;99.90
20364;DHT22;10340;53.664;9.908;2022-08-21T07:40:20;20.40;99.90
20364;DHT22;10340;53.664;9.908;2022-08-21T07:42:49;20.50;99.90
20364;DHT22;10340;53.664;9.908;2022-08-21T07:45:18;20.60;99.90
20364;DHT22;10340;53.664;9.908;2022-08-21T07:47:46;20.70;99.90
20364;DHT22;10340;53.664;9.908;2022-08-21T07:50:14;20.80;99.90
20364;DHT22;10340;53.664;9.908;2022-08-21T07:52:42;20.90;99.90
20364;DHT22;10340;53.664;9.908;2022-08-21T07:55:11;20.90;99.90
20364;DHT22;10340;53.664;9.908;2022-08-21T07:57:38;21.00;99.90
20364;DHT22;10340;53.664;9.908;2022-08-21T08:00:09;21.00;99.90
20364;DHT22;10340;53.664;9.908;2022-08-21T08:02:37;21.10;99.90
20364;DHT22;10340;53.664;9.908;2022-08-21T08:05:07;21.10;99.90
20364;DHT22;10340;53.664;9.908;2022-08-21T08:07:34;21.20;99.90
20364;DHT22;10340;53.664;9.908;2022-08-21T08:10:02;21.30;99.90
20364;DHT22;10340;53.664;9.908;2022-08-21T08:12:29;21.30;99.90
20364;DHT22;10340;53.664;9.908;2022-08-21T08:14:56;21.40;99.90
20364;DHT22;10340;53.664;9.908;2022-08-21T08:17:25;21.40;99.90
20364;DHT22;10340;53.664;9.908;2022-08-21T08:19:52;21.50;99.90
20364;DHT22;10340;53.664;9.908;2022-08-21T08:22:21;21.50;99.90
20364;DHT22;10340;53.664;9.908;2022-08-21T08:24:49;21.60;99.90
20364;DHT22;10340;53.664;9.908;2022-08-21T08:27:17;21.60;99.90
20364;DHT22;10340;53.664;9.908;2022-08-21T08:29:44;21.60;99.90
20364;DHT22;10340;53.664;9.908;2022-08-21T08:32:11;21.60;99.90
20364;DHT22;10340;53.664;9.908;2022-08-21T08:34:40;21.60;99.90
20364;DHT22;10340;53.664;9.908;2022-08-21T08:37:08;21.60;99.90
20364;DHT22;10340;53.664;9.908;2022-08-21T08:39:35;21.60;99.90
20364;DHT22;10340;53.664;9.908;2022-08-21T08:42:06;21.70;99.90
20364;DHT22;10340;53.664;9.908;2022-08-21T08:44:35;21.70;99.90
20364;DHT22;10340;53.664;9.908;2022-08-21T08:47:03;21.80;99.90
20364;DHT22;10340;53.664;9.908;2022-08-21T08:49:34;21.90;99.90
20364;DHT22;10340;53.664;9.908;2022-08-21T08:52:10;21.90;99.90
20364;DHT22;10340;53.664;9.908;2022-08-21T08:54:43;22.00;99.90
20364;DHT22;10340;53.664;9.908;2022-08-21T08:57:17;22.10;99.90
20364;DHT22;10340;53.664;9.908;2022-08-21T08:59:46;22.00;99.90
20364;DHT22;10340;53.664;9.908;2022-08-21T09:02:16;22.00;99.90
20364;DHT22;10340;53.664;9.908;2022-08-21T09:04:44;22.00;99.90
20364;DHT22;10340;53.664;9.908;2022-08-21T09:07:28;22.00;99.90
20364;DHT22;10340;53.664;9.908;2022-08-21T09:10:12;21.90;99.90
20364;DHT22;10340;53.664;9.908;2022-08-21T09:12:47;21.80;99.90
20364;DHT22;10340;53.664;9.908;2022-08-21T09:15:22;21.80;99.90
20364;DHT22;10340;53.664;9.908;2022-08-21T09:18:11;21.80;99.90
20364;DHT22;10340;53.664;9.908;2022-08-21T09:20:47;21.90;99.90
20364;DHT22;10340;53.664;9.908;2022-08-21T09:23:25;22.00;99.90
20364;DHT22;10340;53.664;9.908;2022-08-21T09:26:04;22.10;99.90
20364;DHT22;10340;53.664;9.908;2022-08-21T09:28:34;22.20;99.90
20364;DHT22;10340;53.664;9.908;2022-08-21T09:31:05;22.20;99.90
20364;DHT22;10340;53.664;9.908;2022-08-21T09:33:32;22.30;99.90
20364;DHT22;10340;53.664;9.908;2022-08-21T09:36:00;22.30;99.90
20364;DHT22;10340;53.664;9.908;2022-08-21T09:38:31;22.40;99.90
20364;DHT22;10340;53.664;9.908;2022-08-21T09:41:01;22.50;99.90
20364;DHT22;10340;53.664;9.908;2022-08-21T09:43:29;22.60;99.90
20364;DHT22;10340;53.664;9.908;2022-08-21T09:46:10;22.70;99.90
20364;DHT22;10340;53.664;9.908;2022-08-21T09:48:41;22.80;99.90
20364;DHT22;10340;53.664;9.908;2022-08-21T09:51:10;22.90;99.90
20364;DHT22;10340;53.664;9.908;2022-08-21T09:53:43;23.00;99.90
20364;DHT22;10340;53.664;9.908;2022-08-21T09:56:25;23.10;99.90
20364;DHT22;10340;53.664;9.908;2022-08-21T09:59:20;23.10;99.90
20364;DHT22;10340;53.664;9.908;2022-08-21T10:01:49;23.10;99.90
20364;DHT22;10340;53.664;9.908;2022-08-21T10:04:21;23.10;99.90
20364;DHT22;10340;53.664;9.908;2022-08-21T10:06:48;23.10;99.90
20364;DHT22;10340;53.664;9.908;2022-08-21T10:09:18;23.10;99.90
20364;DHT22;10340;53.664;9.908;2022-08-21T10:11:59;23.00;99.90
20364;DHT22;10340;53.664;9.908;2022-08-21T10:14:44;22.90;99.90
20364;DHT22;10340;53.664;9.908;2022-08-21T10:17:18;22.90;99.90
20364;DHT22;10340;53.664;9.908;2022-08-21T10:19:52;23.20;99.90
20364;DHT22;10340;53.664;9.908;2022-08-21T10:22:29;23.50;99.90
20364;DHT22;10340;53.664;9.908;2022-08-21T10:25:05;23.80;99.90
20364;DHT22;10340;53.664;9.908;2022-08-21T10:27:40;24.00;99.90
20364;DHT22;10340;53.664;9.908;2022-08-21T10:30:13;24.10;99.90
20364;DHT22;10340;53.664;9.908;2022-08-21T10:32:53;24.10;99.90
20364;DHT22;10340;53.664;9.908;2022-08-21T10:35:24;24.00;99.90
20364;DHT22;10340;53.664;9.908;2022-08-21T10:38:15;24.00;99.90
20364;DHT22;10340;53.664;9.908;2022-08-21T10:40:57;23.90;99.90
20364;DHT22;10340;53.664;9.908;2022-08-21T10:43:31;23.80;99.90
20364;DHT22;10340;53.664;9.908;2022-08-21T10:46:04;23.90;99.90
20364;DHT22;10340;53.664;9.908;2022-08-21T10:48:41;23.90;99.90
20364;DHT22;10340;53.664;9.908;2022-08-21T10:51:16;24.00;99.90
20364;DHT22;10340;53.664;9.908;2022-08-21T10:53:55;24.20;99.90
20364;DHT22;10340;53.664;9.908;2022-08-21T10:56:26;24.30;99.90
20364;DHT22;10340;53.664;9.908;2022-08-21T10:59:09;24.50;99.90
20364;DHT22;10340;53.664;9.908;2022-08-21T11:01:44;24.60;99.90
20364;DHT22;10340;53.664;9.908;2022-08-21T11:04:19;24.60;99.90
20364;DHT22;10340;53.664;9.908;2022-08-21T11:06:49;24.40;99.90
20364;DHT22;10340;53.664;9.908;2022-08-21T11:09:22;24.10;99.90
20364;DHT22;10340;53.664;9.908;2022-08-21T11:11:56;24.10;99.90
20364;DHT22;10340;53.664;9.908;2022-08-21T11:14:34;24.10;99.90
20364;DHT22;10340;53.664;9.908;2022-08-21T11:17:07;24.10;99.90
20364;DHT22;10340;53.664;9.908;2022-08-21T11:19:40;24.20;99.90
20364;DHT22;10340;53.664;9.908;2022-08-21T11:22:13;24.10;99.90
20364;DHT22;10340;53.664;9.908;2022-08-21T11:24:46;24.20;99.90
20364;DHT22;10340;53.664;9.908;2022-08-21T11:27:21;24.30;99.90
20364;DHT22;10340;53.664;9.908;2022-08-21T11:29:52;24.30;99.90
20364;DHT22;10340;53.664;9.908;2022-08-21T11:32:44;24.60;99.90
20364;DHT22;10340;53.664;9.908;2022-08-21T11:35:21;24.90;99.90
20364;DHT22;10340;53.664;9.908;2022-08-21T13:32:25;26.40;99.90
20364;DHT22;10340;53.664;9.908;2022-08-21T13:34:53;26.60;99.90
20364;DHT22;10340;53.664;9.908;2022-08-21T13:37:21;26.60;99.90
20364;DHT22;10340;53.664;9.908;2022-08-21T13:39:51;26.60;99.90
20364;DHT22;10340;53.664;9.908;2022-08-21T13:42:18;26.40;99.90
20364;DHT22;10340;53.664;9.908;2022-08-21T13:44:47;26.30;99.90
20364;DHT22;10340;53.664;9.908;2022-08-21T13:47:16;26.40;99.90
20364;DHT22;10340;53.664;9.908;2022-08-21T13:49:47;26.50;99.90
20364;DHT22;10340;53.664;9.908;2022-08-21T13:52:16;26.60;99.90
20364;DHT22;10340;53.664;9.908;2022-08-21T13:54:52;26.40;99.90
20364;DHT22;10340;53.664;9.908;2022-08-21T13:57:25;26.30;99.90
20364;DHT22;10340;53.664;9.908;2022-08-21T13:59:52;26.20;99.90
20364;DHT22;10340;53.664;9.908;2022-08-21T14:02:20;26.20;99.90
20364;DHT22;10340;53.664;9.908;2022-08-21T14:04:55;26.30;99.90
20364;DHT22;10340;53.664;9.908;2022-08-21T14:07:28;26.40;99.90
20364;DHT22;10340;53.664;9.908;2022-08-21T14:10:00;26.30;99.90
20364;DHT22;10340;53.664;9.908;2022-08-21T14:12:30;26.00;99.90
20364;DHT22;10340;53.664;9.908;2022-08-21T14:15:03;25.90;99.90
20364;DHT22;10340;53.664;9.908;2022-08-21T14:17:35;25.70;99.90
20364;DHT22;10340;53.664;9.908;2022-08-21T14:20:05;25.40;99.90
20364;DHT22;10340;53.664;9.908;2022-08-21T14:22:38;25.20;99.90
20364;DHT22;10340;53.664;9.908;2022-08-21T14:25:09;25.00;99.90
20364;DHT22;10340;53.664;9.908;2022-08-21T14:27:43;24.90;99.90
20364;DHT22;10340;53.664;9.908;2022-08-21T14:30:13;24.80;99.90
20364;DHT22;10340;53.664;9.908;2022-08-21T14:32:42;24.80;99.90
20364;DHT22;10340;53.664;9.908;2022-08-21T14:35:11;24.90;99.90
20364;DHT22;10340;53.664;9.908;2022-08-21T14:37:41;25.10;99.90
20364;DHT22;10340;53.664;9.908;2022-08-21T14:40:10;25.30;99.90
20364;DHT22;10340;53.664;9.908;2022-08-21T14:42:37;25.40;99.90
20364;DHT22;10340;53.664;9.908;2022-08-21T14:45:10;25.60;99.90
20364;DHT22;10340;53.664;9.908;2022-08-21T14:47:40;25.40;99.90
20364;DHT22;10340;53.664;9.908;2022-08-21T14:50:09;25.10;99.90
20364;DHT22;10340;53.664;9.908;2022-08-21T14:52:37;25.00;99.90
20364;DHT22;10340;53.664;9.908;2022-08-21T14:55:06;24.90;99.90
20364;DHT22;10340;53.664;9.908;2022-08-21T14:57:34;24.90;99.90
20364;DHT22;10340;53.664;9.908;2022-08-21T15:00:02;24.90;99.90
20364;DHT22;10340;53.664;9.908;2022-08-21T15:02:29;24.90;99.90
20364;DHT22;10340;53.664;9.908;2022-08-21T15:04:56;25.00;99.90
20364;DHT22;10340;53.664;9.908;2022-08-21T15:07:23;25.20;99.90
20364;DHT22;10340;53.664;9.908;2022-08-21T15:09:51;25.50;99.90
20364;DHT22;10340;53.664;9.908;2022-08-21T15:12:18;25.70;99.90
20364;DHT22;10340;53.664;9.908;2022-08-21T15:14:45;25.80;99.90
20364;DHT22;10340;53.664;9.908;2022-08-21T15:17:12;25.80;99.90
20364;DHT22;10340;53.664;9.908;2022-08-21T15:19:39;25.70;99.90
20364;DHT22;10340;53.664;9.908;2022-08-21T15:22:06;25.70;99.90
20364;DHT22;10340;53.664;9.908;2022-08-21T15:24:33;25.60;99.90
20364;DHT22;10340;53.664;9.908;2022-08-21T15:27:03;25.50;99.90
20364;DHT22;10340;53.664;9.908;2022-08-21T15:29:32;25.50;99.90
20364;DHT22;10340;53.664;9.908;2022-08-21T15:32:01;25.50;99.90
20364;DHT22;10340;53.664;9.908;2022-08-21T15:34:30;25.80;99.90
20364;DHT22;10340;53.664;9.908;2022-08-21T15:36:59;26.00;99.90
20364;DHT22;10340;53.664;9.908;2022-08-21T15:39:27;26.20;99.90
20364;DHT22;10340;53.664;9.908;2022-08-21T15:41:58;26.50;99.90
20364;DHT22;10340;53.664;9.908;2022-08-21T15:44:27;26.40;99.90
20364;DHT22;10340;53.664;9.908;2022-08-21T15:46:55;26.40;99.90
20364;DHT22;10340;53.664;9.908;2022-08-21T15:49:24;26.40;99.90
20364;DHT22;10340;53.664;9.908;2022-08-21T15:51:51;26.40;99.90
20364;DHT22;10340;53.664;9.908;2022-08-21T15:54:22;26.60;99.90
20364;DHT22;10340;53.664;9.908;2022-08-21T15:56:49;26.60;99.90
20364;DHT22;10340;53.664;9.908;2022-08-21T15:59:19;26.60;99.90
20364;DHT22;10340;53.664;9.908;2022-08-21T16:01:49;26.70;99.90
20364;DHT22;10340;53.664;9.908;2022-08-21T16:04:23;26.80;99.90
20364;DHT22;10340;53.664;9.908;2022-08-21T16:06:51;26.90;99.90
20364;DHT22;10340;53.664;9.908;2022-08-21T16:09:18;27.00;99.90
20364;DHT22;10340;53.664;9.908;2022-08-21T16:11:45;27.00;99.90
20364;DHT22;10340;53.664;9.908;2022-08-21T16:14:14;27.10;99.90
20364;DHT22;10340;53.664;9.908;2022-08-21T16:16:42;27.00;99.90
20364;DHT22;10340;53.664;9.908;2022-08-21T16:19:11;27.00;99.90
20364;DHT22;10340;53.664;9.908;2022-08-21T16:21:39;27.20;99.90
20364;DHT22;10340;53.664;9.908;2022-08-21T16:24:06;27.40;99.90
20364;DHT22;10340;53.664;9.908;2022-08-21T16:26:33;27.60;99.90
20364;DHT22;10340;53.664;9.908;2022-08-21T16:29:00;27.80;99.90
20364;DHT22;10340;53.664;9.908;2022-08-21T16:31:32;27.90;99.90
20364;DHT22;10340;53.664;9.908;2022-08-21T16:34:02;27.90;99.90
20364;DHT22;10340;53.664;9.908;2022-08-21T16:36:30;27.90;99.90
20364;DHT22;10340;53.664;9.908;2022-08-21T16:39:00;28.00;99.90
20364;DHT22;10340;53.664;9.908;2022-08-21T16:41:31;28.00;99.90
20364;DHT22;10340;53.664;9.908;2022-08-21T16:43:59;27.80;99.90
20364;DHT22;10340;53.664;9.908;2022-08-21T16:46:28;27.80;99.90
20364;DHT22;10340;53.664;9.908;2022-08-21T16:48:57;27.90;99.90
20364;DHT22;10340;53.664;9.908;2022-08-21T16:51:32;28.10;99.90
20364;DHT22;10340;53.664;9.908;2022-08-21T16:53:59;28.40;99.90
20364;DHT22;10340;53.664;9.908;2022-08-21T16:56:26;28.60;99.90
20364;DHT22;10340;53.664;9.908;2022-08-21T16:58:55;28.80;99.90
20364;DHT22;10340;53.664;9.908;2022-08-21T17:01:26;29.10;99.90
20364;DHT22;10340;53.664;9.908;2022-08-21T17:04:02;29.30;99.90
20364;DHT22;10340;53.664;9.908;2022-08-21T17:06:36;29.40;99.90
20364;DHT22;10340;53.664;9.908;2022-08-21T17:09:06;28.80;99.90
20364;DHT22;10340;53.664;9.908;2022-08-21T17:11:38;28.10;99.90
20364;DHT22;10340;53.664;9.908;2022-08-21T17:14:08;27.80;99.90
20364;DHT22;10340;53.664;9.908;2022-08-21T17:16:37;27.50;99.90
20364;DHT22;10340;53.664;9.908;2022-08-21T17:19:04;27.30;99.90
20364;DHT22;10340;53.664;9.908;2022-08-21T17:21:31;27.70;99.90
20364;DHT22;10340;53.664;9.908;2022-08-21T17:24:00;27.80;99.90
20364;DHT22;10340;53.664;9.908;2022-08-21T17:26:27;28.00;99.90
20364;DHT22;10340;53.664;9.908;2022-08-21T17:28:55;28.00;99.90
20364;DHT22;10340;53.664;9.908;2022-08-21T17:31:22;27.80;99.90
20364;DHT22;10340;53.664;9.908;2022-08-21T17:33:50;27.60;99.90
20364;DHT22;10340;53.664;9.908;2022-08-21T17:36:21;27.40;99.90
20364;DHT22;10340;53.664;9.908;2022-08-21T17:38:49;27.20;99.90